Time;durP1;ratioP1;P1;durP2;ratioP2;P2;SDS_P1;SDS_P2;PMS_P1;PMS_P2;Temp;Humidity;BMP_temperature;BMP_pressure;BME280_temperature;BME280_humidity;BME280_pressure;Samples;Min_cycle;Max_cycle;Signal;HPM_P1;HPM_P2
2023/04/16 00:01:57;;;;;;;27.98;26.58;;;;;;;17.06;48.38;102116.59;5016580;28;20041;-81
2023/04/16 00:04:22;;;;;;;27.70;26.30;;;;;;;17.05;48.39;102108.66;5017824;28;20046;-82
2023/04/16 00:06:48;;;;;;;27.15;25.75;;;;;;;17.04;48.54;102115.19;5023465;28;20034;-81
2023/04/16 00:09:13;;;;;;;28.40;26.83;;;;;;;17.02;48.26;102104.53;5018533;28;20046;-82
2023/04/16 00:11:38;;;;;;;27.50;26.00;;;;;;;17.02;48.61;102117.34;5018825;28;20038;-83
2023/04/16 00:14:04;;;;;;;26.73;25.33;;;;;;;16.97;48.76;102115.38;5018789;28;20128;-78
2023/04/16 00:16:30;;;;;;;26.25;24.95;;;;;;;16.95;48.40;102105.78;5002070;28;20053;-83
2023/04/16 00:18:55;;;;;;;26.77;25.48;;;;;;;16.95;48.91;102113.97;5019858;28;20065;-83
2023/04/16 00:21:21;;;;;;;28.90;27.35;;;;;;;16.92;48.78;102109.84;5027188;28;20038;-83
2023/04/16 00:23:46;;;;;;;28.35;26.95;;;;;;;16.91;48.68;102112.81;5015599;28;20035;-82
2023/04/16 00:26:11;;;;;;;28.60;27.00;;;;;;;16.88;48.83;102111.41;5035447;28;20168;-81
2023/04/16 00:28:37;;;;;;;27.45;26.10;;;;;;;16.86;48.64;102108.97;5035375;28;20491;-82
2023/04/16 00:31:02;;;;;;;27.33;25.80;;;;;;;16.86;48.60;102110.88;5035072;28;20034;-80
2023/04/16 00:33:28;;;;;;;28.42;26.73;;;;;;;16.84;48.77;102099.38;5034425;28;20390;-83
2023/04/16 00:35:54;;;;;;;28.20;26.60;;;;;;;16.84;49.01;102104.81;5034173;28;20042;-83
2023/04/16 00:38:19;;;;;;;27.75;26.02;;;;;;;16.81;48.60;102108.06;5033173;28;20029;-83
2023/04/16 00:40:45;;;;;;;26.95;25.60;;;;;;;16.78;48.78;102103.09;5032892;28;20034;-82
2023/04/16 00:43:10;;;;;;;27.23;25.83;;;;;;;16.77;49.03;102101.41;5033347;28;20038;-81
2023/04/16 00:45:36;;;;;;;27.75;26.20;;;;;;;16.75;48.67;102093.47;5034326;28;20041;-81
2023/04/16 00:48:01;;;;;;;26.73;25.30;;;;;;;16.73;48.63;102100.25;5024844;28;20030;-84
2023/04/16 00:50:27;;;;;;;26.50;25.10;;;;;;;16.73;48.84;102100.25;5019008;28;20124;-84
2023/04/16 00:52:53;;;;;;;25.90;24.60;;;;;;;16.71;48.89;102097.78;5019242;28;20033;-83
2023/04/16 00:55:20;;;;;;;28.08;26.48;;;;;;;16.69;49.17;102108.13;5027083;28;20118;-82
2023/04/16 00:57:45;;;;;;;26.00;24.70;;;;;;;16.69;48.98;102105.41;5008140;28;20042;-83
2023/04/16 01:00:11;;;;;;;27.35;25.92;;;;;;;16.65;48.86;102102.31;5032465;28;20049;-81
2023/04/16 01:02:37;;;;;;;26.13;24.83;;;;;;;16.64;48.80;102108.06;5032438;28;20034;-81
2023/04/16 01:05:04;;;;;;;27.80;26.40;;;;;;;16.62;49.06;102107.47;5032632;28;20041;-82
2023/04/16 01:07:30;;;;;;;28.50;26.60;;;;;;;16.61;49.14;102100.38;5032457;28;20033;-81
2023/04/16 01:09:55;;;;;;;26.85;25.55;;;;;;;16.59;49.16;102097.88;5031585;28;20037;-84
2023/04/16 01:12:21;;;;;;;28.15;26.55;;;;;;;16.58;49.05;102103.56;5027772;28;20025;-83
2023/04/16 01:14:46;;;;;;;28.05;26.50;;;;;;;16.56;49.33;102103.03;5023069;28;20117;-83
2023/04/16 01:17:12;;;;;;;27.38;25.95;;;;;;;16.56;49.33;102103.03;5018947;28;20116;-82
2023/04/16 01:19:37;;;;;;;26.55;25.25;;;;;;;16.54;49.35;102102.44;5017631;28;20393;-83
2023/04/16 01:22:04;;;;;;;25.52;24.15;;;;;;;16.51;49.16;102094.75;5017013;28;20545;-84
2023/04/16 01:24:30;;;;;;;26.77;25.38;;;;;;;16.50;49.28;102101.28;5016319;28;20375;-84
2023/04/16 01:26:57;;;;;;;28.58;26.98;;;;;;;16.48;49.43;102106.16;5017643;28;20461;-83
2023/04/16 01:29:23;;;;;;;26.90;25.38;;;;;;;16.47;49.27;102099.88;5016737;28;20034;-84
2023/04/16 01:31:48;;;;;;;26.27;24.98;;;;;;;16.46;49.20;102103.69;5016229;28;20076;-84
2023/04/16 01:34:14;;;;;;;26.67;25.25;;;;;;;16.44;49.16;102101.19;5015675;28;20056;-83
2023/04/16 01:36:39;;;;;;;25.95;24.45;;;;;;;16.42;49.51;102102.53;5015826;28;20124;-84
2023/04/16 01:39:04;;;;;;;26.30;24.98;;;;;;;16.41;49.10;102103.59;5014990;28;20116;-84
2023/04/16 01:41:30;;;;;;;28.20;26.67;;;;;;;16.40;49.50;102101.94;5014591;28;20478;-82
2023/04/16 01:43:56;;;;;;;26.08;24.77;;;;;;;16.38;49.31;102102.22;5014949;28;20025;-83
2023/04/16 01:46:29;;;;;;;28.05;26.55;;;;;;;16.38;49.28;102106.84;5013242;28;20440;-83
2023/04/16 01:48:56;;;;;;;26.77;25.38;;;;;;;16.36;49.40;102107.06;5015798;28;20033;-84
2023/04/16 01:51:21;;;;;;;28.40;26.50;;;;;;;16.34;49.52;102109.22;5014716;28;20050;-83
2023/04/16 01:53:49;;;;;;;27.70;26.13;;;;;;;16.34;49.12;102108.41;5014536;28;20026;-83
2023/04/16 01:56:14;;;;;;;27.50;26.10;;;;;;;16.31;49.29;102107.00;5014807;28;20034;-81
2023/04/16 01:58:41;;;;;;;25.80;24.48;;;;;;;16.28;49.60;102099.31;5014377;28;20100;-84
2023/04/16 02:01:07;;;;;;;26.00;24.60;;;;;;;16.29;49.38;102102.88;5014417;28;20062;-83
2023/04/16 02:03:32;;;;;;;27.13;25.63;;;;;;;16.27;49.65;102110.47;5014409;28;20041;-82
2023/04/16 02:05:58;;;;;;;25.77;24.27;;;;;;;16.26;49.70;102106.91;5015316;28;20038;-84
2023/04/16 02:08:24;;;;;;;26.63;25.13;;;;;;;16.24;49.58;102098.16;5014270;28;20053;-83
2023/04/16 02:10:49;;;;;;;26.40;25.00;;;;;;;16.25;49.38;102104.41;5014829;28;20034;-84
2023/04/16 02:13:15;;;;;;;24.88;23.67;;;;;;;16.22;49.81;102109.28;5014519;28;20030;-84
2023/04/16 02:15:48;;;;;;;26.55;25.05;;;;;;;16.20;49.52;102110.63;5014547;28;20033;-83
2023/04/16 02:18:13;;;;;;;25.77;24.42;;;;;;;16.20;49.60;102114.19;5014405;28;20374;-84
2023/04/16 02:20:40;;;;;;;25.65;24.25;;;;;;;16.17;49.93;102109.22;5014476;28;20041;-84
2023/04/16 02:23:06;;;;;;;26.52;25.05;;;;;;;16.15;49.50;102103.19;5014772;28;20033;-84
2023/04/16 02:25:31;;;;;;;27.40;25.90;;;;;;;16.14;49.67;102100.72;5014138;28;20042;-84
2023/04/16 02:27:57;;;;;;;26.30;24.85;;;;;;;16.14;49.42;102106.16;5014441;28;20026;-84
2023/04/16 02:30:23;;;;;;;26.15;24.33;;;;;;;16.12;49.79;102117.28;5014181;28;20141;-85
2023/04/16 02:32:48;;;;;;;25.55;24.25;;;;;;;16.11;49.62;102118.38;5015124;28;20034;-84
2023/04/16 02:35:14;;;;;;;26.02;24.30;;;;;;;16.11;49.63;102103.94;5014065;28;20037;-82
2023/04/16 02:37:39;;;;;;;25.55;24.15;;;;;;;16.06;49.84;102110.13;5017740;28;20041;-84
2023/04/16 02:40:05;;;;;;;26.10;24.63;;;;;;;16.06;49.79;102109.28;5018493;28;20040;-84
2023/04/16 02:42:31;;;;;;;25.85;24.50;;;;;;;16.06;49.53;102120.19;5017798;28;20030;-84
2023/04/16 02:44:56;;;;;;;24.83;23.48;;;;;;;16.05;49.78;102110.34;5018331;28;20034;-83
2023/04/16 02:47:21;;;;;;;25.52;24.20;;;;;;;16.05;49.82;102115.81;5017422;28;20037;-85
2023/04/16 02:49:47;;;;;;;26.25;24.65;;;;;;;16.03;49.70;102113.34;5017900;28;20141;-84
2023/04/16 02:52:12;;;;;;;24.92;23.63;;;;;;;15.99;49.93;102115.72;5000228;28;20160;-85
2023/04/16 02:54:38;;;;;;;27.27;25.67;;;;;;;15.98;50.01;102115.97;5017495;28;20469;-85
2023/04/16 02:57:04;;;;;;;24.85;23.55;;;;;;;15.97;50.05;102123.31;5017837;28;20030;-85
2023/04/16 02:59:30;;;;;;;26.38;24.98;;;;;;;15.96;49.79;102118.94;5017407;28;20060;-84
2023/04/16 03:01:55;;;;;;;24.98;23.48;;;;;;;15.96;49.86;102118.94;5017821;28;20116;-85
2023/04/16 03:04:21;;;;;;;26.10;24.60;;;;;;;15.94;49.79;102122.97;5017431;28;20029;-83
2023/04/16 03:06:46;;;;;;;24.58;23.27;;;;;;;15.90;49.82;102119.94;5016939;28;20113;-83
2023/04/16 03:09:12;;;;;;;25.52;24.02;;;;;;;15.91;49.81;102118.03;5017292;28;20054;-86
2023/04/16 03:11:37;;;;;;;26.60;24.80;;;;;;;15.89;49.97;102118.25;5016985;28;20037;-83
2023/04/16 03:14:02;;;;;;;27.25;25.73;;;;;;;15.89;49.99;102122.88;5017610;28;20053;-84
2023/04/16 03:16:28;;;;;;;27.55;25.85;;;;;;;15.87;50.02;102128.56;5016833;28;20386;-84
2023/04/16 03:18:53;;;;;;;26.55;24.92;;;;;;;15.87;50.15;102130.47;5017166;28;20034;-86
2023/04/16 03:21:18;;;;;;;24.05;22.73;;;;;;;15.85;49.87;102127.16;5016501;28;20044;-84
2023/04/16 03:23:44;;;;;;;25.80;24.40;;;;;;;15.85;50.10;102127.16;5016325;28;20492;-84
2023/04/16 03:26:09;;;;;;;25.30;23.80;;;;;;;15.84;50.08;102126.34;5016318;28;20045;-84
2023/04/16 03:28:35;;;;;;;25.98;24.27;;;;;;;15.82;50.09;102131.19;5016636;28;20531;-82
2023/04/16 03:31:00;;;;;;;23.63;22.42;;;;;;;15.82;49.92;102122.22;5016668;28;20081;-85
2023/04/16 03:33:26;;;;;;;27.30;25.70;;;;;;;15.80;49.94;102136.09;5016272;28;20470;-84
2023/04/16 03:35:56;;;;;;;24.15;22.85;;;;;;;15.79;50.05;102129.78;5016175;28;20035;-84
2023/04/16 03:38:22;;;;;;;24.95;23.25;;;;;;;15.78;50.12;102124.59;5014843;28;20470;-85
2023/04/16 03:40:47;;;;;;;26.17;24.80;;;;;;;15.75;50.05;102131.38;5015992;28;20034;-83
2023/04/16 03:43:13;;;;;;;24.88;23.38;;;;;;;15.76;49.98;102126.75;4998424;28;20034;-84
2023/04/16 03:45:43;;;;;;;25.88;24.38;;;;;;;15.75;50.07;102131.38;5015871;28;20092;-86
2023/04/16 03:48:09;;;;;;;23.95;22.70;;;;;;;15.74;50.30;102124.25;5015387;28;20412;-84
2023/04/16 03:50:34;;;;;;;24.55;23.20;;;;;;;15.74;50.13;102134.31;5015757;28;20034;-86
2023/04/16 03:53:00;;;;;;;25.23;23.63;;;;;;;15.69;50.37;102129.59;5016383;28;20093;-83
2023/04/16 03:55:25;;;;;;;26.52;24.73;;;;;;;15.70;50.35;102136.72;5015885;28;20078;-83
2023/04/16 03:57:50;;;;;;;24.90;23.60;;;;;;;15.68;50.30;102132.56;5016046;28;20167;-85
2023/04/16 04:00:16;;;;;;;25.48;23.60;;;;;;;15.68;50.12;102127.94;5015337;28;20038;-84
2023/04/16 04:02:41;;;;;;;26.75;25.15;;;;;;;15.69;50.26;102131.47;4998523;28;20561;-83
2023/04/16 04:05:07;;;;;;;25.13;23.38;;;;;;;15.68;50.03;102135.28;5015282;28;20041;-83
2023/04/16 04:07:32;;;;;;;28.80;26.35;;;;;;;15.67;50.12;102136.31;5015557;28;20052;-83
2023/04/16 04:09:58;;;;;;;23.73;22.48;;;;;;;15.66;50.08;102138.22;4998435;28;20105;-83
2023/04/16 04:12:23;;;;;;;27.48;25.75;;;;;;;15.65;50.59;102135.75;5015365;28;20466;-84
2023/04/16 04:14:49;;;;;;;26.80;25.23;;;;;;;15.63;50.03;102132.47;5015462;28;20532;-84
2023/04/16 04:17:14;;;;;;;27.42;25.70;;;;;;;15.63;50.23;102132.47;5015767;28;20037;-82
2023/04/16 04:19:40;;;;;;;26.23;24.45;;;;;;;15.62;50.17;102138.94;5015175;28;20120;-83
2023/04/16 04:22:05;;;;;;;24.90;23.38;;;;;;;15.59;50.16;102135.63;5015351;28;20033;-84
2023/04/16 04:24:30;;;;;;;27.40;25.33;;;;;;;15.57;50.53;102140.53;5015629;28;20044;-84
2023/04/16 04:26:56;;;;;;;26.73;24.98;;;;;;;15.57;50.20;102140.53;5015585;28;20057;-84
2023/04/16 04:29:21;;;;;;;25.80;24.17;;;;;;;15.57;50.20;102147.84;5015096;28;20034;-83
2023/04/16 04:31:47;;;;;;;26.33;24.60;;;;;;;15.58;50.46;102144.06;5015075;28;20066;-83
2023/04/16 04:34:12;;;;;;;24.38;22.88;;;;;;;15.57;50.05;102151.41;5015834;28;20034;-83
2023/04/16 04:36:37;;;;;;;27.95;25.77;;;;;;;15.55;50.36;102145.38;5015350;28;20068;-82
2023/04/16 04:39:03;;;;;;;24.20;22.70;;;;;;;15.54;50.31;102148.34;5015190;28;20481;-84
2023/04/16 04:41:28;;;;;;;26.15;24.55;;;;;;;15.54;50.18;102153.78;5015253;28;20038;-77
2023/04/16 04:43:54;;;;;;;25.20;23.67;;;;;;;15.52;50.40;102151.31;5014925;28;20040;-82
2023/04/16 04:46:22;;;;;;;25.05;23.55;;;;;;;15.52;50.36;102151.31;5013522;28;20034;-83
2023/04/16 04:48:47;;;;;;;25.52;23.83;;;;;;;15.52;50.33;102148.59;5014678;28;20032;-83
2023/04/16 04:51:13;;;;;;;23.38;22.13;;;;;;;15.51;50.03;102157.81;4997210;28;20057;-83
2023/04/16 04:53:38;;;;;;;27.63;25.77;;;;;;;15.51;50.24;102151.53;5014843;28;20354;-82
2023/04/16 04:56:04;;;;;;;25.45;23.75;;;;;;;15.50;50.46;102147.19;5015111;28;20545;-83
2023/04/16 04:58:29;;;;;;;25.27;23.67;;;;;;;15.49;50.23;102151.78;4996757;28;20057;-79
2023/04/16 05:00:54;;;;;;;23.30;22.10;;;;;;;15.47;50.47;102159.38;5013238;28;20029;-83
2023/04/16 05:03:20;;;;;;;24.27;22.80;;;;;;;15.46;50.55;102155.00;4997416;28;20044;-84
2023/04/16 05:05:46;;;;;;;26.65;25.15;;;;;;;15.47;50.35;102166.69;5014878;28;20466;-83
2023/04/16 05:08:11;;;;;;;24.40;23.00;;;;;;;15.46;50.17;102157.72;5014387;28;20049;-82
2023/04/16 05:10:37;;;;;;;27.70;25.77;;;;;;;15.46;50.38;102165.06;5014381;28;20034;-82
2023/04/16 05:13:02;;;;;;;25.85;24.35;;;;;;;15.44;50.31;102159.84;5014653;28;20386;-82
2023/04/16 05:15:27;;;;;;;25.63;24.13;;;;;;;15.45;50.65;102168.88;5014226;28;20117;-83
2023/04/16 05:17:54;;;;;;;24.20;22.67;;;;;;;15.43;50.38;102163.66;5013921;28;20037;-80
2023/04/16 05:20:23;;;;;;;25.15;23.25;;;;;;;15.42;50.47;102167.44;5014256;28;20033;-80
2023/04/16 05:22:50;;;;;;;25.38;23.90;;;;;;;15.39;50.53;102164.34;5014433;28;20034;-82
2023/04/16 05:25:16;;;;;;;24.00;22.70;;;;;;;15.39;50.55;102169.81;5014266;28;20041;-84
2023/04/16 05:27:42;;;;;;;28.38;26.15;;;;;;;15.39;50.40;102161.63;5014708;28;20033;-84
2023/04/16 05:30:07;;;;;;;25.45;24.00;;;;;;;15.39;50.58;102170.63;4996812;28;20092;-83
2023/04/16 05:32:33;;;;;;;24.63;23.13;;;;;;;15.39;50.47;102164.34;5014592;28;20492;-80
2023/04/16 05:34:58;;;;;;;27.05;25.30;;;;;;;15.38;50.54;102168.16;5014920;28;20056;-82
2023/04/16 05:37:24;;;;;;;24.33;22.73;;;;;;;15.34;50.36;102174.06;4996445;28;20385;-83
2023/04/16 05:39:50;;;;;;;26.63;24.67;;;;;;;15.36;50.25;102179.28;5013860;28;20069;-83
2023/04/16 05:42:15;;;;;;;24.65;23.25;;;;;;;15.35;50.32;102178.47;5014776;28;20034;-80
2023/04/16 05:44:40;;;;;;;25.52;23.92;;;;;;;15.33;50.59;102180.59;5013894;28;20037;-82
2023/04/16 05:47:08;;;;;;;25.52;24.08;;;;;;;15.34;50.17;102181.41;5014138;28;20080;-83
2023/04/16 05:49:34;;;;;;;25.17;23.77;;;;;;;15.33;50.42;102179.78;5014349;28;20144;-84
2023/04/16 05:51:59;;;;;;;25.30;23.95;;;;;;;15.33;50.60;102183.31;5013802;28;20032;-83
2023/04/16 05:54:25;;;;;;;24.40;23.05;;;;;;;15.33;50.41;102187.94;5013859;28;20452;-84
2023/04/16 05:56:50;;;;;;;25.77;24.15;;;;;;;15.31;50.38;102190.06;5014297;28;20034;-83
2023/04/16 05:59:15;;;;;;;24.73;23.23;;;;;;;15.30;50.57;102183.78;5013759;28;20037;-83
2023/04/16 06:01:41;;;;;;;25.70;24.10;;;;;;;15.29;50.55;102186.75;4996103;28;20034;-82
2023/04/16 06:04:06;;;;;;;25.13;23.73;;;;;;;15.28;50.54;102188.66;5013980;28;20034;-83
2023/04/16 06:06:31;;;;;;;26.13;24.63;;;;;;;15.26;50.46;102193.50;4996550;28;20034;-82
2023/04/16 06:08:57;;;;;;;24.73;22.73;;;;;;;15.26;50.70;102193.50;5013717;28;20061;-83
2023/04/16 06:11:22;;;;;;;24.83;23.02;;;;;;;15.26;50.44;102196.22;5016806;28;20121;-83
2023/04/16 06:13:48;;;;;;;25.70;24.00;;;;;;;15.25;50.40;102194.56;5017970;28;20118;-84
2023/04/16 06:16:13;;;;;;;22.60;21.40;;;;;;;15.25;50.79;102193.75;5017706;28;20489;-83
2023/04/16 06:18:38;;;;;;;24.63;23.13;;;;;;;15.24;50.60;102194.81;5000331;28;20038;-82
2023/04/16 06:21:04;;;;;;;23.75;22.48;;;;;;;15.24;50.66;102200.25;5017762;28;20030;-81
2023/04/16 06:23:30;;;;;;;26.17;23.98;;;;;;;15.23;50.41;102206.78;5017482;28;20026;-81
2023/04/16 06:25:55;;;;;;;26.25;24.55;;;;;;;15.22;50.49;102214.13;5017426;28;20057;-83
2023/04/16 06:28:21;;;;;;;24.52;22.85;;;;;;;15.21;50.47;102200.72;5017378;28;20057;-82
2023/04/16 06:30:46;;;;;;;24.63;23.23;;;;;;;15.20;50.73;102201.81;5017554;28;20038;-83
2023/04/16 06:33:12;;;;;;;25.73;23.88;;;;;;;15.19;50.54;102205.56;5017786;28;20037;-84
2023/04/16 06:35:37;;;;;;;24.23;22.88;;;;;;;15.18;50.85;102209.38;5017511;28;20030;-83
2023/04/16 06:38:02;;;;;;;23.35;22.05;;;;;;;15.18;50.56;102214.81;4999812;28;20424;-84
2023/04/16 06:40:28;;;;;;;25.40;23.58;;;;;;;15.17;50.68;102213.16;5017282;28;20190;-82
2023/04/16 06:42:53;;;;;;;26.50;24.70;;;;;;;15.17;50.63;102221.31;5017102;28;20446;-84
2023/04/16 06:45:19;;;;;;;25.15;23.65;;;;;;;15.17;50.83;102221.31;5017114;28;20535;-84
2023/04/16 06:47:48;;;;;;;24.75;23.17;;;;;;;15.16;50.53;102220.50;5016892;28;20060;-83
2023/04/16 06:50:16;;;;;;;23.88;22.38;;;;;;;15.15;50.78;102232.47;5017129;28;20030;-83
2023/04/16 06:52:42;;;;;;;23.98;22.27;;;;;;;15.14;50.63;102230.78;5017168;28;20049;-84
2023/04/16 06:55:09;;;;;;;26.10;24.58;;;;;;;15.15;50.98;102236.00;5015299;28;20030;-84
2023/04/16 06:57:35;;;;;;;23.17;21.83;;;;;;;15.14;50.68;102234.34;4999243;28;20500;-84
2023/04/16 07:00:00;;;;;;;24.38;22.60;;;;;;;15.14;50.59;102228.06;5016814;28;20042;-84
2023/04/16 07:02:26;;;;;;;24.65;23.20;;;;;;;15.14;50.69;102230.78;5016608;28;20040;-83
2023/04/16 07:04:51;;;;;;;24.63;23.13;;;;;;;15.14;50.54;102238.94;5017188;28;20042;-83
2023/04/16 07:07:17;;;;;;;24.38;22.90;;;;;;;15.12;50.85;102233.75;5016466;28;20088;-80
2023/04/16 07:09:42;;;;;;;25.00;23.38;;;;;;;15.12;50.67;102244.66;5017005;28;20496;-84
2023/04/16 07:12:08;;;;;;;25.52;23.83;;;;;;;15.10;50.98;102243.22;5017702;28;20557;-89
2023/04/16 07:14:33;;;;;;;25.25;23.35;;;;;;;15.10;50.73;102244.03;4999543;28;20049;-89
2023/04/16 07:16:58;;;;;;;25.75;23.60;;;;;;;15.09;50.96;102247.00;5017105;28;20522;-89
2023/04/16 07:19:24;;;;;;;24.52;23.02;;;;;;;15.09;50.97;102247.00;4999812;28;20030;-90
2023/04/16 07:21:50;;;;;;;26.00;24.35;;;;;;;15.08;50.69;102250.78;5016186;28;20470;-89
2023/04/16 07:24:16;;;;;;;25.17;23.33;;;;;;;15.08;50.92;102254.34;5017332;28;20050;-89
2023/04/16 07:26:41;;;;;;;24.23;22.73;;;;;;;15.07;50.75;102252.69;5017979;28;20037;-89
2023/04/16 07:29:06;;;;;;;24.77;23.17;;;;;;;15.07;50.91;102252.69;5000195;28;20038;-89
2023/04/16 07:31:32;;;;;;;26.35;23.75;;;;;;;15.07;50.94;102252.69;5022978;28;20041;-88
2023/04/16 07:33:57;;;;;;;24.17;22.67;;;;;;;15.06;50.78;102251.00;5037193;28;20098;-87
2023/04/16 07:36:23;;;;;;;23.15;21.90;;;;;;;15.06;50.77;102259.19;5036862;28;20045;-85
2023/04/16 07:38:48;;;;;;;25.80;24.00;;;;;;;15.07;51.00;102254.59;5038707;28;20038;-88
2023/04/16 07:41:14;;;;;;;23.30;22.00;;;;;;;15.06;50.69;102270.06;5022614;28;20048;-89
2023/04/16 07:43:39;;;;;;;24.25;22.60;;;;;;;15.04;50.97;102266.75;5017640;28;20033;-87
2023/04/16 07:46:05;;;;;;;24.33;22.65;;;;;;;15.04;50.77;102269.47;5016841;28;20040;-88
2023/04/16 07:48:30;;;;;;;25.40;23.33;;;;;;;15.05;50.72;102276.59;5016997;28;20065;-86
2023/04/16 07:50:56;;;;;;;25.50;23.90;;;;;;;15.05;50.85;102276.59;5017200;28;20538;-89
2023/04/16 07:53:21;;;;;;;24.38;23.02;;;;;;;15.04;50.66;102276.81;5016599;28;20034;-90
2023/04/16 07:55:47;;;;;;;26.77;24.90;;;;;;;15.05;50.84;102275.75;5016993;28;20546;-89
2023/04/16 07:58:12;;;;;;;24.60;23.20;;;;;;;15.03;50.84;102278.72;5018117;28;20034;-89
2023/04/16 08:00:38;;;;;;;25.10;23.30;;;;;;;15.03;51.04;102273.25;5021049;28;20033;-91
2023/04/16 08:03:03;;;;;;;26.10;24.00;;;;;;;15.03;50.64;102275.97;5032798;28;20112;-89
2023/04/16 08:05:29;;;;;;;24.08;22.58;;;;;;;15.04;50.73;102276.81;5020135;28;20045;-91
2023/04/16 08:07:54;;;;;;;26.63;24.70;;;;;;;15.03;51.01;102286.03;5017592;28;20132;-89
2023/04/16 08:10:20;;;;;;;23.40;22.00;;;;;;;15.03;50.79;102277.88;5015607;28;20073;-91
2023/04/16 08:12:45;;;;;;;26.48;24.20;;;;;;;15.01;50.66;102283.53;5016769;28;20076;-88
2023/04/16 08:15:11;;;;;;;24.00;21.98;;;;;;;15.01;50.86;102291.72;5016572;28;20034;-90
2023/04/16 08:17:37;;;;;;;23.73;22.17;;;;;;;15.01;50.85;102291.72;5016653;28;20030;-91
2023/04/16 08:20:03;;;;;;;25.63;23.60;;;;;;;15.00;50.98;102294.69;5016234;28;20153;-92
2023/04/16 08:22:29;;;;;;;21.70;20.58;;;;;;;15.00;51.18;102291.97;5017067;28;20398;-90
2023/04/16 08:24:54;;;;;;;26.52;24.73;;;;;;;15.00;50.82;102305.56;5017069;28;20112;-90
2023/04/16 08:27:20;;;;;;;26.35;23.98;;;;;;;14.98;51.06;102300.34;4999852;28;20038;-89
2023/04/16 08:29:45;;;;;;;25.58;23.50;;;;;;;14.99;51.10;102302.00;5017232;28;20037;-89
2023/04/16 08:32:11;;;;;;;25.52;23.80;;;;;;;14.99;51.10;102302.00;4998920;28;20041;-90
2023/04/16 08:34:37;;;;;;;21.38;20.13;;;;;;;14.98;51.10;102308.50;5016197;28;20121;-89
2023/04/16 08:37:02;;;;;;;25.33;23.63;;;;;;;14.97;51.19;102309.59;5016143;28;20036;-90
2023/04/16 08:39:28;;;;;;;23.48;22.02;;;;;;;14.98;51.00;102307.69;4999056;28;20120;-83
2023/04/16 08:41:57;;;;;;;26.60;24.70;;;;;;;14.98;51.08;102316.69;5016770;28;20105;-90
2023/04/16 08:44:30;;;;;;;23.02;21.83;;;;;;;14.97;51.14;102312.31;5016038;28;20034;-88
2023/04/16 08:46:57;;;;;;;26.70;24.80;;;;;;;14.97;50.88;102316.91;5016012;28;20498;-90
2023/04/16 08:49:24;;;;;;;27.05;24.90;;;;;;;14.97;51.02;102315.03;5015661;28;20076;-90
2023/04/16 08:51:52;;;;;;;25.15;23.42;;;;;;;14.98;51.10;102318.56;5015820;28;20026;-84
2023/04/16 08:54:37;;;;;;;24.80;22.98;;;;;;;14.97;51.25;102322.34;5015089;28;20034;-89
2023/04/16 08:57:05;;;;;;;26.33;24.45;;;;;;;14.97;50.96;102315.03;5015011;28;20026;-87
2023/04/16 08:59:31;;;;;;;23.45;22.10;;;;;;;14.96;51.08;102313.34;4997551;28;20034;-87
2023/04/16 09:01:58;;;;;;;25.20;23.38;;;;;;;14.97;50.95;102319.63;4997301;28;20121;-87
2023/04/16 09:04:27;;;;;;;26.27;24.23;;;;;;;14.97;51.15;102327.78;5015493;28;20034;-87
2023/04/16 09:06:55;;;;;;;27.00;24.65;;;;;;;14.96;50.96;102324.25;5014835;28;20022;-85
2023/04/16 09:09:21;;;;;;;24.87;23.17;;;;;;;14.96;50.98;102331.56;4996692;28;20069;-86
2023/04/16 09:11:50;;;;;;;25.92;24.13;;;;;;;14.97;51.14;102327.78;5014616;28;20482;-87
2023/04/16 09:14:17;;;;;;;24.58;23.27;;;;;;;14.96;51.31;102339.75;5015134;28;20029;-86
2023/04/16 09:16:44;;;;;;;24.83;23.13;;;;;;;14.95;51.26;102336.19;5014681;28;20059;-88
2023/04/16 09:19:10;;;;;;;24.98;23.20;;;;;;;14.96;51.27;102337.03;5014686;28;20087;-83
2023/04/16 09:21:36;;;;;;;24.02;22.50;;;;;;;14.96;51.21;102337.03;5015642;28;20398;-86
2023/04/16 09:24:02;;;;;;;26.02;24.13;;;;;;;14.95;51.05;102338.09;5014341;28;20037;-84
2023/04/16 09:26:28;;;;;;;23.63;22.23;;;;;;;14.94;51.06;102337.25;4996812;28;20049;-87
2023/04/16 09:28:54;;;;;;;25.85;23.67;;;;;;;14.96;51.29;102347.91;5014709;28;20229;-87
2023/04/16 09:31:19;;;;;;;24.88;23.25;;;;;;;14.95;51.07;102344.34;5014386;28;20057;-87
2023/04/16 09:34:01;;;;;;;23.42;22.02;;;;;;;14.91;51.36;102346.69;5014936;28;20030;-86
2023/04/16 09:36:27;;;;;;;24.38;22.75;;;;;;;14.92;51.64;102351.09;5013871;28;20130;-86
2023/04/16 09:38:54;;;;;;;27.27;25.60;;;;;;;14.95;51.29;102354.41;5014863;28;20518;-86
2023/04/16 09:41:28;;;;;;;24.75;22.50;;;;;;;14.92;51.38;102351.09;5014156;28;20033;-86
2023/04/16 09:43:57;;;;;;;26.77;24.73;;;;;;;14.94;51.62;102353.56;5015839;28;20057;-86
2023/04/16 09:46:24;;;;;;;27.35;25.45;;;;;;;14.94;51.54;102359.00;5013708;28;20029;-87
2023/04/16 09:48:50;;;;;;;26.58;24.65;;;;;;;14.95;51.22;102366.13;5015873;28;20034;-89
2023/04/16 09:51:15;;;;;;;24.83;23.10;;;;;;;14.95;51.13;102366.13;5034050;28;20072;-87
2023/04/16 09:53:44;;;;;;;25.17;23.45;;;;;;;14.94;51.40;102367.16;5015274;28;20101;-88
2023/04/16 09:56:10;;;;;;;23.15;21.75;;;;;;;14.93;51.59;102366.34;5014615;28;20121;-82
2023/04/16 09:58:40;;;;;;;27.25;24.92;;;;;;;14.92;51.49;102364.69;5014255;28;20037;-89
2023/04/16 10:01:11;;;;;;;27.90;25.88;;;;;;;14.93;51.45;102366.34;5014062;28;20413;-87
2023/04/16 10:03:39;;;;;;;27.38;25.30;;;;;;;14.95;51.41;102371.56;5014580;28;20529;-85
2023/04/16 10:06:08;;;;;;;27.08;25.00;;;;;;;14.95;51.18;102374.28;5014643;28;20041;-87
2023/04/16 10:08:33;;;;;;;;;;;;;;;14.90;51.43;102372.25;5014516;28;20050;-88
2023/04/16 10:10:59;;;;;;;26.98;24.75;;;;;;;14.92;51.45;102372.03;5014137;28;19929;-83
2023/04/16 10:13:26;;;;;;;26.23;24.45;;;;;;;14.91;51.59;102382.06;5014276;28;20063;-89
2023/04/16 10:15:55;;;;;;;27.88;25.77;;;;;;;14.93;51.59;102382.66;5014058;28;20041;-89
2023/04/16 10:18:21;;;;;;;24.63;22.77;;;;;;;14.92;51.56;102381.03;4996807;28;20034;-89
2023/04/16 10:20:47;;;;;;;28.08;26.02;;;;;;;14.94;51.69;102378.06;5014098;28;20041;-89
2023/04/16 10:23:13;;;;;;;27.40;25.38;;;;;;;14.95;51.50;102384.34;4996728;28;20030;-88
2023/04/16 10:25:39;;;;;;;23.65;22.00;;;;;;;14.95;51.64;102381.63;5014831;28;20030;-89
2023/04/16 10:28:06;;;;;;;26.75;25.00;;;;;;;14.94;51.40;102386.22;5014656;28;20469;-89
2023/04/16 10:30:32;;;;;;;27.13;24.73;;;;;;;14.95;51.47;102390.63;5013763;28;20065;-88
2023/04/16 10:32:58;;;;;;;25.52;24.13;;;;;;;14.95;51.94;102390.63;5014294;28;20038;-87
2023/04/16 10:35:24;;;;;;;24.52;22.98;;;;;;;14.96;51.64;102392.25;5013262;28;20034;-87
2023/04/16 10:37:55;;;;;;;25.77;24.17;;;;;;;14.97;51.42;102396.66;5013855;28;20108;-88
2023/04/16 10:40:25;;;;;;;25.48;23.88;;;;;;;14.98;51.47;102383.88;5013186;28;20176;-90
2023/04/16 10:42:58;;;;;;;26.65;25.05;;;;;;;14.97;51.43;102383.06;5014129;28;20104;-81
2023/04/16 10:45:31;;;;;;;26.65;24.83;;;;;;;14.97;51.54;102395.81;5014004;28;20026;-80
2023/04/16 10:47:57;;;;;;;24.65;23.00;;;;;;;14.96;51.88;102389.53;5013851;28;20141;-83
2023/04/16 10:50:23;;;;;;;27.40;25.50;;;;;;;14.96;51.67;102384.09;5013470;28;20164;-83
2023/04/16 10:53:08;;;;;;;27.50;25.30;;;;;;;14.96;51.79;102392.25;5013309;28;20519;-84
2023/04/16 10:55:37;;;;;;;25.63;24.00;;;;;;;14.97;51.78;102385.78;5012151;28;20486;-83
2023/04/16 10:58:26;;;;;;;26.35;24.23;;;;;;;14.97;51.87;102383.06;5019509;28;20034;-78
2023/04/16 11:00:52;;;;;;;27.33;25.00;;;;;;;14.98;51.73;102384.69;5017921;28;20468;-84
2023/04/16 11:03:17;;;;;;;27.52;25.48;;;;;;;14.99;51.60;102386.34;5017696;28;20507;-84
2023/04/16 11:05:46;;;;;;;26.50;24.58;;;;;;;15.00;51.74;102382.59;5018823;28;20057;-84